Sant Just Desvern, Spain
Current Conditions -  °F | °C
As of 5:00 PM on Thursday 29 Jan 2015 (Local Time) from LEBL Reporting Station
Few Clouds Few Clouds  
Wind Chill: 15°   Ceiling: Unl
Heat Index: 15°   Visibility: 6mi
Dew Point:   Wind: 22mph
Humidity: 55%   Direction: 240°WSW
Pressure: 29.53"   Gusts: NA
Location:  41.39°N, 2.08°E
Report Text: LEBL 291600Z 24019KT 9999 FEW035 15/06 Q1000 NOSIG
Loading
Personal Weather Stations






























Interactive Weather Map New forecast layout! Learn more

10-Day Weather Forecast

Advertisements
Track Severe Weather on mobile